Time;durP1;ratioP1;P1;durP2;ratioP2;P2;SDS_P1;SDS_P2;PMS_P1;PMS_P2;Temp;Humidity;BMP_temperature;BMP_pressure;BME280_temperature;BME280_humidity;BME280_pressure;Samples;Min_cycle;Max_cycle;Signal;HPM_P1;HPM_P2
2023/05/07 00:01:07;;;;;;;;;;;22.20;63.70;;;;;;5086625;28;43724;-82
2023/05/07 00:03:33;;;;;;;;;;;22.40;63.80;;;;;;5085456;27;43004;-82
2023/05/07 00:05:58;;;;;;;;;;;22.30;64.00;;;;;;5084873;28;43716;-83
2023/05/07 00:08:24;;;;;;;;;;;;;;;;;;5086361;28;42963;-82
2023/05/07 00:10:50;;;;;;;;;;;22.40;63.50;;;;;;5086765;28;42913;-82
2023/05/07 00:13:15;;;;;;;;;;;22.30;63.00;;;;;;5085900;28;42892;-82
2023/05/07 00:15:41;;;;;;;;;;;22.40;63.80;;;;;;5085347;28;43891;-82
2023/05/07 00:18:07;;;;;;;;;;;22.30;63.40;;;;;;5085883;27;43172;-82
2023/05/07 00:20:32;;;;;;;;;;;22.20;63.40;;;;;;5083718;28;43050;-84
2023/05/07 00:22:58;;;;;;;;;;;22.40;63.70;;;;;;5082982;28;42972;-82
2023/05/07 00:25:23;;;;;;;;;;;22.30;63.90;;;;;;5084680;28;43047;-82
2023/05/07 00:27:49;;;;;;;;;;;22.50;63.80;;;;;;5085481;27;42938;-82
2023/05/07 00:30:14;;;;;;;;;;;22.30;63.90;;;;;;5085987;27;43193;-86
2023/05/07 00:32:40;;;;;;;;;;;22.30;64.00;;;;;;5072348;27;43153;-85
2023/05/07 00:35:06;;;;;;;;;;;22.40;64.20;;;;;;5086466;27;43015;-85
2023/05/07 00:37:31;;;;;;;;;;;22.40;63.20;;;;;;5085928;27;42948;-85
2023/05/07 00:39:57;;;;;;;;;;;22.40;63.20;;;;;;5082412;28;43059;-84
2023/05/07 00:42:23;;;;;;;;;;;22.40;63.30;;;;;;5085883;28;42932;-85
2023/05/07 00:44:49;;;;;;;;;;;22.30;63.20;;;;;;5084772;28;43682;-85
2023/05/07 00:47:15;;;;;;;;;;;22.40;63.40;;;;;;5085897;27;43146;-87
2023/05/07 00:49:44;;;;;;;;;;;22.40;64.00;;;;;;5086056;27;42956;-85
2023/05/07 00:52:11;;;;;;;;;;;22.30;63.50;;;;;;5086080;27;43079;-85
2023/05/07 00:54:37;;;;;;;;;;;22.50;63.70;;;;;;5084767;27;43172;-85
2023/05/07 00:57:03;;;;;;;;;;;22.30;63.60;;;;;;5082355;27;43096;-85
2023/05/07 00:59:29;;;;;;;;;;;22.50;63.50;;;;;;5083946;27;43534;-86
2023/05/07 01:01:54;;;;;;;;;;;22.30;63.30;;;;;;5084386;28;42963;-85
2023/05/07 01:04:20;;;;;;;;;;;22.40;63.50;;;;;;5086207;27;43040;-85
2023/05/07 01:06:46;;;;;;;;;;;22.30;62.60;;;;;;5081890;28;43024;-86
2023/05/07 01:09:12;;;;;;;;;;;22.30;62.50;;;;;;5076924;28;42977;-86
2023/05/07 01:11:37;;;;;;;;;;;22.40;62.70;;;;;;5085536;27;43011;-84
2023/05/07 01:14:03;;;;;;;;;;;22.30;62.60;;;;;;5085774;27;43742;-85
2023/05/07 01:16:29;;;;;;;;;;;22.40;64.80;;;;;;5085494;27;42967;-86
2023/05/07 01:18:55;;;;;;;;;;;22.40;62.80;;;;;;5085484;27;42978;-86
2023/05/07 01:21:24;;;;;;;;;;;22.30;62.70;;;;;;5084352;27;43054;-84
2023/05/07 01:23:50;;;;;;;;;;;22.40;63.00;;;;;;5085513;27;43325;-84
2023/05/07 01:26:16;;;;;;;;;;;22.30;62.40;;;;;;5085483;28;42938;-84
2023/05/07 01:28:41;;;;;;;;;;;22.20;62.40;;;;;;5085122;27;42950;-85
2023/05/07 01:31:07;;;;;;;;;;;22.80;62.90;;;;;;5080448;27;43202;-85
2023/05/07 01:33:34;;;;;;;;;;;22.30;62.50;;;;;;5084791;28;43338;-85
2023/05/07 01:36:03;;;;;;;;;;;22.20;62.40;;;;;;5084869;27;42957;-81
2023/05/07 01:38:29;;;;;;;;;;;22.40;62.50;;;;;;5085235;28;43629;-84
2023/05/07 01:40:55;;;;;;;;;;;22.40;62.70;;;;;;5084933;27;42971;-82
2023/05/07 01:43:20;;;;;;;;;;;22.30;62.50;;;;;;5084614;28;43727;-85
2023/05/07 01:45:47;;;;;;;;;;;22.20;62.60;;;;;;5084571;28;43222;-84
2023/05/07 01:48:13;;;;;;;;;;;22.30;62.80;;;;;;5085020;27;43542;-85
2023/05/07 01:50:39;;;;;;;;;;;22.30;63.00;;;;;;5084663;27;42995;-85
2023/05/07 01:53:04;;;;;;;;;;;22.30;63.20;;;;;;5084516;27;43977;-82
2023/05/07 01:55:30;;;;;;;;;;;22.30;63.00;;;;;;5084351;28;43171;-84
2023/05/07 01:57:56;;;;;;;;;;;22.20;63.00;;;;;;5084171;27;43062;-83
2023/05/07 02:00:21;;;;;;;;;;;22.30;63.50;;;;;;5084066;28;43047;-84
2023/05/07 02:02:47;;;;;;;;;;;22.20;62.90;;;;;;5084094;27;43996;-85
2023/05/07 02:05:12;;;;;;;;;;;22.30;63.10;;;;;;5084268;28;43206;-83
2023/05/07 02:07:38;;;;;;;;;;;22.40;63.30;;;;;;5084207;28;43071;-81
2023/05/07 02:10:03;;;;;;;;;;;22.30;62.50;;;;;;5085056;28;43041;-85
2023/05/07 02:12:29;;;;;;;;;;;22.30;63.00;;;;;;5084611;27;42970;-82
2023/05/07 02:14:54;;;;;;;;;;;22.20;62.80;;;;;;5083989;27;43039;-85
2023/05/07 02:17:20;;;;;;;;;;;22.30;62.70;;;;;;5084618;28;42995;-82
2023/05/07 02:19:45;;;;;;;;;;;22.30;62.70;;;;;;5085116;28;42940;-85
2023/05/07 02:22:11;;;;;;;;;;;22.30;62.80;;;;;;5084816;28;43357;-82
2023/05/07 02:24:36;;;;;;;;;;;22.20;62.90;;;;;;5084470;28;42987;-85
2023/05/07 02:27:03;;;;;;;;;;;22.30;62.90;;;;;;5084140;28;43193;-81
2023/05/07 02:29:28;;;;;;;;;;;22.30;63.10;;;;;;5081001;27;43048;-84
2023/05/07 02:31:54;;;;;;;;;;;22.30;62.40;;;;;;5084034;27;44016;-80
2023/05/07 02:34:19;;;;;;;;;;;22.30;62.70;;;;;;5083782;28;42874;-85
2023/05/07 02:36:45;;;;;;;;;;;22.20;62.50;;;;;;5084727;28;43619;-82
2023/05/07 02:39:11;;;;;;;;;;;22.20;62.60;;;;;;5084620;27;42972;-86
2023/05/07 02:41:37;;;;;;;;;;;22.40;62.50;;;;;;5083939;28;43975;-82
2023/05/07 02:44:03;;;;;;;;;;;22.20;63.00;;;;;;5084555;28;43031;-85
2023/05/07 02:46:28;;;;;;;;;;;22.20;62.40;;;;;;5084333;28;44047;-83
2023/05/07 02:48:54;;;;;;;;;;;22.00;62.60;;;;;;5084501;28;42921;-84
2023/05/07 02:51:20;;;;;;;;;;;22.30;62.30;;;;;;5084336;28;42980;-82
2023/05/07 02:53:45;;;;;;;;;;;22.10;63.60;;;;;;5084142;27;43124;-85
2023/05/07 02:56:11;;;;;;;;;;;22.30;63.40;;;;;;5084104;27;43675;-81
2023/05/07 02:58:37;;;;;;;;;;;22.20;63.30;;;;;;5084197;27;42990;-81
2023/05/07 03:01:04;;;;;;;;;;;22.20;63.50;;;;;;5074741;28;64285;-84
2023/05/07 03:03:30;;;;;;;;;;;22.30;63.10;;;;;;5083899;27;43556;-84
2023/05/07 03:05:55;;;;;;;;;;;22.20;62.60;;;;;;5082735;28;42987;-84
2023/05/07 03:08:21;;;;;;;;;;;22.20;63.10;;;;;;5083159;27;43135;-85
2023/05/07 03:10:46;;;;;;;;;;;22.10;68.20;;;;;;5083833;28;43117;-86
2023/05/07 03:13:12;;;;;;;;;;;22.20;63.20;;;;;;5083934;27;43239;-85
2023/05/07 03:15:37;;;;;;;;;;;22.20;63.00;;;;;;5083245;28;43491;-85
2023/05/07 03:18:03;;;;;;;;;;;22.10;63.20;;;;;;5083976;28;42972;-85
2023/05/07 03:20:29;;;;;;;;;;;22.20;63.00;;;;;;5083413;28;42934;-85
2023/05/07 03:22:55;;;;;;;;;;;22.20;62.90;;;;;;5083962;27;43048;-85
2023/05/07 03:25:20;;;;;;;;;;;22.30;62.80;;;;;;5087588;28;42983;-84
2023/05/07 03:27:46;;;;;;;;;;;22.30;62.90;;;;;;5087571;27;43100;-82
2023/05/07 03:30:12;;;;;;;;;;;22.20;62.80;;;;;;5084328;28;42854;-85
2023/05/07 03:32:38;;;;;;;;;;;22.10;62.80;;;;;;5087006;28;42995;-85
2023/05/07 03:35:03;;;;;;;;;;;22.00;62.80;;;;;;5087106;28;42978;-85
2023/05/07 03:37:29;;;;;;;;;;;22.10;62.60;;;;;;5086706;27;42977;-85
2023/05/07 03:39:54;;;;;;;;;;;22.10;62.50;;;;;;5087005;28;42940;-85
2023/05/07 03:42:20;;;;;;;;;;;22.10;62.70;;;;;;5086598;28;43312;-84
2023/05/07 03:44:45;;;;;;;;;;;22.20;62.20;;;;;;5087105;28;42901;-83
2023/05/07 03:47:13;;;;;;;;;;;22.20;62.10;;;;;;5086306;28;42952;-83
2023/05/07 03:49:39;;;;;;;;;;;22.10;62.60;;;;;;5086253;27;43544;-85
2023/05/07 03:52:04;;;;;;;;;;;22.10;63.10;;;;;;5086705;27;42835;-85
2023/05/07 03:54:30;;;;;;;;;;;22.10;62.90;;;;;;5087040;27;42957;-84
2023/05/07 03:56:56;;;;;;;;;;;;;;;;;;5086591;28;43004;-86
2023/05/07 03:59:22;;;;;;;;;;;22.20;63.00;;;;;;5086861;28;43850;-84
2023/05/07 04:01:48;;;;;;;;;;;22.20;62.70;;;;;;5087306;27;42958;-84
2023/05/07 04:04:14;;;;;;;;;;;22.20;62.50;;;;;;5087034;27;43129;-85
2023/05/07 04:06:40;;;;;;;;;;;22.00;62.50;;;;;;5085892;27;43051;-86
2023/05/07 04:09:06;;;;;;;;;;;22.20;65.90;;;;;;5086108;28;43035;-84
2023/05/07 04:11:31;;;;;;;;;;;22.20;62.60;;;;;;5085291;28;43027;-83
2023/05/07 04:13:57;;;;;;;;;;;22.20;62.70;;;;;;5086257;28;42971;-85
2023/05/07 04:16:22;;;;;;;;;;;22.10;62.70;;;;;;5086608;28;42968;-84
2023/05/07 04:18:48;;;;;;;;;;;22.00;62.70;;;;;;5086607;28;43502;-85
2023/05/07 04:21:14;;;;;;;;;;;22.10;62.70;;;;;;5086061;28;42969;-85
2023/05/07 04:23:40;;;;;;;;;;;22.30;62.30;;;;;;5086238;27;43023;-83
2023/05/07 04:26:05;;;;;;;;;;;22.10;62.70;;;;;;5070874;28;43524;-84
2023/05/07 04:28:31;;;;;;;;;;;22.20;62.80;;;;;;5076933;28;43344;-85
2023/05/07 04:30:57;;;;;;;;;;;22.20;62.30;;;;;;5082162;28;43051;-84
2023/05/07 04:33:22;;;;;;;;;;;22.10;62.70;;;;;;5085341;27;42947;-84
2023/05/07 04:35:48;;;;;;;;;;;22.30;62.90;;;;;;5084118;27;43692;-84
2023/05/07 04:38:14;;;;;;;;;;;22.00;62.40;;;;;;5084127;28;44752;-84
2023/05/07 04:40:39;;;;;;;;;;;22.00;63.20;;;;;;5085708;28;42972;-85
2023/05/07 04:43:05;;;;;;;;;;;22.10;63.10;;;;;;5086092;27;43682;-82
2023/05/07 04:45:30;;;;;;;;;;;22.10;62.80;;;;;;5086040;27;42938;-84
2023/05/07 04:47:56;;;;;;;;;;;22.00;62.20;;;;;;5086054;28;42931;-85
2023/05/07 04:50:24;;;;;;;;;;;22.10;63.10;;;;;;5085839;28;42864;-81
2023/05/07 04:52:49;;;;;;;;;;;22.20;66.90;;;;;;5086476;27;43089;-85
2023/05/07 04:55:15;;;;;;;;;;;;;;;;;;5086420;28;42914;-85
2023/05/07 04:57:41;;;;;;;;;;;22.10;63.20;;;;;;5085727;28;43487;-86
2023/05/07 05:00:08;;;;;;;;;;;22.10;63.40;;;;;;5084663;28;42959;-85
2023/05/07 05:02:34;;;;;;;;;;;22.10;63.90;;;;;;5086061;27;43328;-85
2023/05/07 05:05:01;;;;;;;;;;;22.10;64.90;;;;;;5086146;28;43095;-84
2023/05/07 05:07:27;;;;;;;;;;;22.20;63.80;;;;;;5085752;27;42980;-85
2023/05/07 05:09:52;;;;;;;;;;;22.00;63.20;;;;;;5085245;28;42948;-85
2023/05/07 05:12:18;;;;;;;;;;;22.00;64.40;;;;;;5086260;28;42936;-84
2023/05/07 05:14:44;;;;;;;;;;;22.00;64.60;;;;;;5085025;28;42997;-86
2023/05/07 05:17:09;;;;;;;;;;;22.20;65.00;;;;;;5084940;28;43088;-83
2023/05/07 05:19:35;;;;;;;;;;;22.10;65.00;;;;;;5085394;28;43088;-85
2023/05/07 05:22:01;;;;;;;;;;;22.20;69.60;;;;;;5085135;27;43444;-84
2023/05/07 05:24:26;;;;;;;;;;;22.30;64.70;;;;;;5085409;27;43091;-84
2023/05/07 05:26:52;;;;;;;;;;;;;;;;;;5085292;27;43664;-86
2023/05/07 05:29:18;;;;;;;;;;;22.30;64.80;;;;;;5081946;28;43058;-83
2023/05/07 05:31:43;;;;;;;;;;;22.20;64.40;;;;;;5083927;28;43085;-84
2023/05/07 05:34:09;;;;;;;;;;;22.10;65.00;;;;;;5084979;27;43060;-83
2023/05/07 05:36:34;;;;;;;;;;;22.30;65.20;;;;;;5085802;27;43332;-85
2023/05/07 05:39:00;;;;;;;;;;;22.20;64.40;;;;;;5085045;28;43074;-85
2023/05/07 05:41:25;;;;;;;;;;;22.30;65.10;;;;;;5085105;28;43329;-86
2023/05/07 05:43:51;;;;;;;;;;;22.20;65.60;;;;;;5085164;28;43075;-85
2023/05/07 05:46:16;;;;;;;;;;;22.10;64.90;;;;;;5083766;28;43407;-82
2023/05/07 05:48:42;;;;;;;;;;;22.10;71.90;;;;;;5084744;28;43449;-85
2023/05/07 05:51:07;;;;;;;;;;;22.10;73.00;;;;;;5084865;28;43375;-86
2023/05/07 05:53:45;;;;;;;;;;;22.20;68.70;;;;;;5075929;27;43120;-84
2023/05/07 05:56:10;;;;;;;;;;;22.10;66.70;;;;;;5071296;28;43632;-84
2023/05/07 05:58:36;;;;;;;;;;;22.10;64.10;;;;;;5082179;28;43045;-85
2023/05/07 06:01:02;;;;;;;;;;;22.30;65.50;;;;;;5085733;28;43597;-83
2023/05/07 06:03:28;;;;;;;;;;;22.20;67.40;;;;;;5073966;27;42972;-85
2023/05/07 06:05:53;;;;;;;;;;;22.20;66.10;;;;;;5084354;28;43095;-82
2023/05/07 06:08:19;;;;;;;;;;;22.20;66.90;;;;;;5083794;28;43083;-84
2023/05/07 06:10:45;;;;;;;;;;;22.20;65.70;;;;;;5075873;28;43072;-84
2023/05/07 06:13:10;;;;;;;;;;;22.30;66.10;;;;;;5081942;27;42964;-86
2023/05/07 06:15:37;;;;;;;;;;;22.30;66.40;;;;;;5084852;28;43491;-85
2023/05/07 06:18:02;;;;;;;;;;;22.20;66.30;;;;;;5079147;27;42965;-83
2023/05/07 06:20:28;;;;;;;;;;;22.30;66.60;;;;;;5070238;28;43749;-84
2023/05/07 06:22:53;;;;;;;;;;;22.20;66.30;;;;;;5084590;28;43034;-84
2023/05/07 06:25:19;;;;;;;;;;;22.10;65.90;;;;;;5084618;28;43017;-83
2023/05/07 06:27:45;;;;;;;;;;;22.10;65.20;;;;;;5084396;27;42969;-84
2023/05/07 06:30:11;;;;;;;;;;;22.20;65.00;;;;;;5081479;28;42933;-80
2023/05/07 06:32:36;;;;;;;;;;;22.20;65.60;;;;;;5077847;28;44059;-83
2023/05/07 06:35:02;;;;;;;;;;;22.30;67.00;;;;;;5082937;27;43966;-83
2023/05/07 06:37:27;;;;;;;;;;;22.20;66.20;;;;;;5084133;28;43006;-81
2023/05/07 06:39:53;;;;;;;;;;;22.10;66.30;;;;;;5082823;28;43925;-80
2023/05/07 06:42:19;;;;;;;;;;;;;;;;;;5081274;28;43107;-79
2023/05/07 06:44:44;;;;;;;;;;;22.20;65.20;;;;;;5081370;27;45024;-83
2023/05/07 06:47:10;;;;;;;;;;;22.20;66.00;;;;;;5083818;28;42970;-82
2023/05/07 06:49:36;;;;;;;;;;;22.20;65.80;;;;;;5083225;28;43861;-83
2023/05/07 06:52:01;;;;;;;;;;;22.30;65.10;;;;;;5082567;28;42989;-84
2023/05/07 06:54:27;;;;;;;;;;;22.20;64.80;;;;;;5083508;27;43233;-83
2023/05/07 06:56:52;;;;;;;;;;;22.20;72.70;;;;;;5083232;27;43051;-82
2023/05/07 06:59:19;;;;;;;;;;;22.30;65.90;;;;;;5084766;28;42895;-83
2023/05/07 07:01:44;;;;;;;;;;;22.30;65.10;;;;;;5086845;27;42933;-83
2023/05/07 07:04:10;;;;;;;;;;;22.30;64.90;;;;;;5085763;28;43424;-82
2023/05/07 07:06:35;;;;;;;;;;;22.30;64.90;;;;;;5084477;28;43097;-82
2023/05/07 07:09:01;;;;;;;;;;;22.20;65.00;;;;;;5085712;28;43125;-82
2023/05/07 07:11:26;;;;;;;;;;;22.30;64.90;;;;;;5075948;28;42964;-81
2023/05/07 07:13:54;;;;;;;;;;;22.20;65.20;;;;;;5078071;28;42879;-82
2023/05/07 07:16:20;;;;;;;;;;;22.40;64.90;;;;;;5086045;27;42949;-81
2023/05/07 07:18:45;;;;;;;;;;;22.20;64.30;;;;;;5085390;27;43318;-79
2023/05/07 07:21:11;;;;;;;;;;;22.30;64.20;;;;;;5086449;27;44111;-78
2023/05/07 07:23:37;;;;;;;;;;;22.30;66.70;;;;;;5086598;27;43338;-76
2023/05/07 07:26:02;;;;;;;;;;;22.20;64.60;;;;;;5076628;27;42961;-78
2023/05/07 07:28:28;;;;;;;;;;;22.20;64.60;;;;;;5085595;28;42969;-79
2023/05/07 07:30:53;;;;;;;;;;;22.30;64.50;;;;;;5084866;27;42918;-81
2023/05/07 07:33:19;;;;;;;;;;;22.20;64.40;;;;;;5084153;28;43730;-77
2023/05/07 07:35:44;;;;;;;;;;;22.20;64.70;;;;;;5085465;28;43004;-80
2023/05/07 07:38:10;;;;;;;;;;;22.20;65.70;;;;;;5090778;27;44588;-77
2023/05/07 07:40:35;;;;;;;;;;;22.30;65.10;;;;;;5085315;27;43009;-77
2023/05/07 07:43:01;;;;;;;;;;;22.30;64.00;;;;;;5076081;27;43805;-81
2023/05/07 07:45:27;;;;;;;;;;;22.10;64.20;;;;;;5084938;27;42926;-77
2023/05/07 07:47:52;;;;;;;;;;;22.30;63.70;;;;;;5085853;28;43018;-77
2023/05/07 07:50:20;;;;;;;;;;;22.30;62.50;;;;;;5082197;28;42983;-78
2023/05/07 07:52:46;;;;;;;;;;;22.10;63.00;;;;;;5085676;27;42988;-79
2023/05/07 07:55:12;;;;;;;;;;;22.20;63.20;;;;;;5090992;27;43281;-76
2023/05/07 07:57:37;;;;;;;;;;;22.30;63.70;;;;;;5086462;27;44673;-77
2023/05/07 08:00:03;;;;;;;;;;;22.30;64.00;;;;;;5071775;27;42972;-79
2023/05/07 08:02:29;;;;;;;;;;;22.20;63.20;;;;;;5075712;27;43653;-78
2023/05/07 08:04:55;;;;;;;;;;;22.30;63.10;;;;;;5081539;28;42995;-78
2023/05/07 08:07:22;;;;;;;;;;;22.30;63.50;;;;;;5085394;28;43000;-79
2023/05/07 08:09:48;;;;;;;;;;;22.30;64.40;;;;;;5092973;27;43000;-78
2023/05/07 08:12:13;;;;;;;;;;;22.30;64.10;;;;;;5079565;28;43080;-82
2023/05/07 08:14:39;;;;;;;;;;;22.30;63.70;;;;;;5081553;28;42953;-80
2023/05/07 08:17:06;;;;;;;;;;;22.30;64.60;;;;;;5074665;28;43664;-81
2023/05/07 08:19:31;;;;;;;;;;;22.20;64.70;;;;;;5089926;27;43069;-82
2023/05/07 08:21:57;;;;;;;;;;;22.40;64.10;;;;;;5076295;28;43405;-82
2023/05/07 08:24:22;;;;;;;;;;;22.30;64.00;;;;;;5066438;28;43120;-83
2023/05/07 08:26:49;;;;;;;;;;;22.20;64.90;;;;;;5074897;28;43119;-84
2023/05/07 08:29:16;;;;;;;;;;;22.30;64.70;;;;;;5081377;28;43148;-84
2023/05/07 08:31:41;;;;;;;;;;;22.20;64.80;;;;;;5081859;28;43473;-81
2023/05/07 08:34:07;;;;;;;;;;;22.20;66.10;;;;;;5087545;27;42984;-81
2023/05/07 08:36:32;;;;;;;;;;;22.10;64.30;;;;;;5089001;27;44571;-84
2023/05/07 08:38:58;;;;;;;;;;;22.20;64.30;;;;;;5089153;27;43221;-80
2023/05/07 08:41:24;;;;;;;;;;;22.20;65.00;;;;;;5085036;27;43532;-81
2023/05/07 08:43:50;;;;;;;;;;;22.30;64.90;;;;;;5084568;28;42878;-81
2023/05/07 08:46:22;;;;;;;;;;;22.40;65.40;;;;;;5086413;27;42944;-82
2023/05/07 08:48:48;;;;;;;;;;;22.20;70.10;;;;;;5080321;28;43085;-84
2023/05/07 08:51:15;;;;;;;;;;;22.10;65.10;;;;;;5091947;27;43494;-81
2023/05/07 08:53:41;;;;;;;;;;;22.10;64.90;;;;;;5083923;27;43011;-81
2023/05/07 08:56:08;;;;;;;;;;;22.20;65.20;;;;;;5085877;27;42878;-80
2023/05/07 08:58:34;;;;;;;;;;;22.20;64.40;;;;;;5083982;27;42966;-81
2023/05/07 09:01:03;;;;;;;;;;;22.20;64.20;;;;;;5083575;28;43375;-81
2023/05/07 09:03:28;;;;;;;;;;;22.30;64.60;;;;;;5084794;27;42975;-85
2023/05/07 09:05:54;;;;;;;;;;;22.10;64.70;;;;;;5084629;28;43086;-80
2023/05/07 09:08:20;;;;;;;;;;;;;;;;;;5075844;28;42927;-79
2023/05/07 09:10:47;;;;;;;;;;;22.20;64.40;;;;;;5084791;27;43761;-86
2023/05/07 09:13:14;;;;;;;;;;;22.20;64.40;;;;;;5083843;27;43169;-87
2023/05/07 09:15:39;;;;;;;;;;;22.30;64.20;;;;;;5084594;27;43469;-84
2023/05/07 09:18:05;;;;;;;;;;;22.30;64.50;;;;;;5086033;28;43000;-86
2023/05/07 09:20:31;;;;;;;;;;;22.30;64.20;;;;;;5070305;28;42920;-81
2023/05/07 09:22:57;;;;;;;;;;;22.20;64.40;;;;;;5072634;27;43081;-84
2023/05/07 09:25:29;;;;;;;;;;;21.90;65.30;;;;;;5078751;28;42861;-82
2023/05/07 09:27:55;;;;;;;;;;;22.40;65.10;;;;;;5075395;28;42981;-82
2023/05/07 09:30:20;;;;;;;;;;;22.30;67.40;;;;;;5077198;28;43400;-81
2023/05/07 09:32:46;;;;;;;;;;;22.50;65.00;;;;;;5083291;28;42927;-81
2023/05/07 09:35:16;;;;;;;;;;;22.30;66.90;;;;;;5084810;28;43446;-81
2023/05/07 09:37:41;;;;;;;;;;;22.40;65.00;;;;;;5084328;27;42835;-81
2023/05/07 09:40:07;;;;;;;;;;;22.20;64.70;;;;;;5084608;28;42947;-82
2023/05/07 09:42:32;;;;;;;;;;;22.50;64.70;;;;;;5084226;27;43082;-84
2023/05/07 09:44:59;;;;;;;;;;;22.50;64.50;;;;;;5084198;28;43745;-82
2023/05/07 09:47:25;;;;;;;;;;;22.30;62.80;;;;;;5085145;27;43011;-85
2023/05/07 09:49:55;;;;;;;;;;;22.20;63.30;;;;;;5083717;27;42936;-85
2023/05/07 09:52:21;;;;;;;;;;;22.40;64.50;;;;;;5079873;28;43178;-83
2023/05/07 09:54:48;;;;;;;;;;;22.40;63.90;;;;;;5079095;27;43001;-85
2023/05/07 09:57:13;;;;;;;;;;;22.40;63.80;;;;;;5084306;27;42980;-86
2023/05/07 09:59:42;;;;;;;;;;;22.30;63.60;;;;;;5084377;27;43642;-82
2023/05/07 10:02:10;;;;;;;;;;;22.40;64.30;;;;;;5085320;27;43055;-83
2023/05/07 10:04:35;;;;;;;;;;;22.50;63.90;;;;;;5081910;28;44511;-85
2023/05/07 10:07:02;;;;;;;;;;;22.50;63.90;;;;;;5077571;27;43047;-84
2023/05/07 10:09:28;;;;;;;;;;;22.50;64.10;;;;;;5076530;27;43184;-80
2023/05/07 10:11:54;;;;;;;;;;;22.50;66.70;;;;;;5083682;28;43074;-90
2023/05/07 10:14:20;;;;;;;;;;;;;;;;;;5083140;27;43241;-86
2023/05/07 10:16:47;;;;;;;;;;;22.40;65.30;;;;;;5085122;28;42922;-91
2023/05/07 10:19:12;;;;;;;;;;;22.50;65.10;;;;;;5083353;27;43060;-90
2023/05/07 10:21:39;;;;;;;;;;;22.50;65.40;;;;;;5084483;27;43300;-92
2023/05/07 10:24:10;;;;;;;;;;;22.60;68.30;;;;;;5074451;28;44782;-84
2023/05/07 10:26:35;;;;;;;;;;;22.50;67.30;;;;;;5077944;28;43151;-83
2023/05/07 10:29:07;;;;;;;;;;;22.50;65.90;;;;;;5081964;27;43119;-83
2023/05/07 10:31:35;;;;;;;;;;;22.60;69.00;;;;;;5081675;27;43060;-85
2023/05/07 10:34:01;;;;;;;;;;;;;;;;;;5081682;27;43211;-83
2023/05/07 10:36:27;;;;;;;;;;;22.40;68.50;;;;;;5072281;28;42985;-83
2023/05/07 10:38:53;;;;;;;;;;;22.50;68.40;;;;;;5080615;27;43222;-83
2023/05/07 10:41:19;;;;;;;;;;;;;;;;;;5082699;28;43190;-87
2023/05/07 10:43:45;;;;;;;;;;;22.60;68.50;;;;;;5083354;28;42960;-84
2023/05/07 10:46:16;;;;;;;;;;;22.70;70.00;;;;;;5083533;27;42974;-83
2023/05/07 10:49:00;;;;;;;;;;;22.70;70.70;;;;;;5083080;28;43089;-85
2023/05/07 10:51:26;;;;;;;;;;;22.60;71.10;;;;;;5087904;27;43062;-85
2023/05/07 10:54:10;;;;;;;;;;;22.60;72.90;;;;;;5083511;27;42857;-85
2023/05/07 10:56:37;;;;;;;;;;;22.70;71.60;;;;;;5082984;27;43000;-83
2023/05/07 10:59:27;;;;;;;;;;;22.70;72.00;;;;;;5081550;28;45311;-81
2023/05/07 11:01:57;;;;;;;;;;;22.50;72.40;;;;;;5084160;27;43820;-84
2023/05/07 11:04:31;;;;;;;;;;;22.60;73.20;;;;;;5071544;27;43450;-82
2023/05/07 11:07:05;;;;;;;;;;;22.60;74.70;;;;;;5077977;27;42998;-81
2023/05/07 11:09:49;;;;;;;;;;;22.50;84.10;;;;;;5076122;28;43455;-80
2023/05/07 11:12:15;;;;;;;;;;;22.50;76.30;;;;;;5082548;27;43150;-81
2023/05/07 11:14:41;;;;;;;;;;;22.50;76.90;;;;;;5080861;27;43449;-80
2023/05/07 11:17:06;;;;;;;;;;;22.50;77.30;;;;;;5081981;27;43015;-81
2023/05/07 11:19:49;;;;;;;;;;;22.50;77.90;;;;;;5077655;27;42950;-81
2023/05/07 11:22:44;;;;;;;;;;;22.40;77.70;;;;;;5081529;28;43049;-81
2023/05/07 11:25:10;;;;;;;;;;;;;;;;;;5062647;28;43464;-82
2023/05/07 11:27:38;;;;;;;;;;;22.40;78.30;;;;;;5085173;27;43253;-80
2023/05/07 11:30:04;;;;;;;;;;;22.50;78.70;;;;;;5077647;27;42979;-82
2023/05/07 11:32:36;;;;;;;;;;;22.30;78.90;;;;;;5065486;28;43371;-81
2023/05/07 11:35:02;;;;;;;;;;;22.50;77.60;;;;;;5082462;28;44733;-82
2023/05/07 11:37:30;;;;;;;;;;;22.40;76.40;;;;;;5084983;27;42944;-82
2023/05/07 11:40:06;;;;;;;;;;;22.60;78.20;;;;;;5087645;27;42965;-82
2023/05/07 11:42:37;;;;;;;;;;;22.60;78.50;;;;;;5083513;27;43283;-82
2023/05/07 11:45:03;;;;;;;;;;;22.50;78.00;;;;;;5084510;27;43002;-82
2023/05/07 11:47:31;;;;;;;;;;;22.50;75.60;;;;;;5086065;27;42900;-82
2023/05/07 11:49:57;;;;;;;;;;;22.70;76.00;;;;;;5081369;27;43241;-82
2023/05/07 11:52:23;;;;;;;;;;;22.70;74.40;;;;;;5072289;28;42981;-82
2023/05/07 11:54:57;;;;;;;;;;;22.70;81.90;;;;;;5087056;27;43775;-82
2023/05/07 11:57:28;;;;;;;;;;;22.60;75.00;;;;;;5086294;27;42910;-81
2023/05/07 11:59:54;;;;;;;;;;;22.60;79.70;;;;;;5076588;27;43772;-82
2023/05/07 12:02:19;;;;;;;;;;;22.50;74.90;;;;;;5083672;28;42920;-83
2023/05/07 12:04:48;;;;;;;;;;;22.60;74.90;;;;;;5086982;27;43000;-82
2023/05/07 12:07:14;;;;;;;;;;;22.70;74.50;;;;;;5089319;27;42974;-83
2023/05/07 12:09:40;;;;;;;;;;;22.70;75.00;;;;;;5093133;27;43090;-82
2023/05/07 12:12:06;;;;;;;;;;;22.70;73.30;;;;;;5086669;27;42963;-82
2023/05/07 12:14:40;;;;;;;;;;;22.70;73.00;;;;;;5082313;27;43543;-81
2023/05/07 12:17:07;;;;;;;;;;;22.60;70.90;;;;;;5095445;27;42989;-82
2023/05/07 12:19:33;;;;;;;;;;;22.60;72.10;;;;;;5095104;27;42906;-82
2023/05/07 12:21:59;;;;;;;;;;;22.60;71.40;;;;;;5090641;27;43017;-81
2023/05/07 12:24:25;;;;;;;;;;;22.60;70.50;;;;;;5092058;27;43452;-81
2023/05/07 12:26:50;;;;;;;;;;;22.50;74.10;;;;;;5091806;27;43104;-81
2023/05/07 12:29:16;;;;;;;;;;;22.60;72.20;;;;;;5077707;27;43054;-82
2023/05/07 12:31:41;;;;;;;;;;;22.70;71.40;;;;;;5086016;27;43102;-82
2023/05/07 12:34:31;;;;;;;;;;;22.60;76.20;;;;;;5087401;27;43199;-82
2023/05/07 12:36:56;;;;;;;;;;;22.50;69.70;;;;;;5080163;27;43874;-82
2023/05/07 12:39:22;;;;;;;;;;;22.50;69.80;;;;;;5074261;27;42879;-78
2023/05/07 12:41:58;;;;;;;;;;;22.60;69.10;;;;;;5082823;27;42990;-80
2023/05/07 12:44:25;;;;;;;;;;;22.70;69.70;;;;;;5086248;27;43599;-79
2023/05/07 12:46:51;;;;;;;;;;;22.50;69.20;;;;;;5084273;27;42851;-80
2023/05/07 12:49:20;;;;;;;;;;;22.60;71.40;;;;;;5085566;27;43375;-80
2023/05/07 12:51:48;;;;;;;;;;;22.60;69.50;;;;;;5086293;28;42998;-80
2023/05/07 12:54:27;;;;;;;;;;;22.80;69.70;;;;;;5086104;27;43918;-80
2023/05/07 12:57:00;;;;;;;;;;;22.50;70.60;;;;;;5083886;27;43045;-80
2023/05/07 12:59:32;;;;;;;;;;;22.60;68.60;;;;;;5080358;28;45463;-79
2023/05/07 13:01:58;;;;;;;;;;;22.70;69.70;;;;;;5085294;27;42941;-78
2023/05/07 13:04:24;;;;;;;;;;;22.70;72.10;;;;;;5085625;28;43063;-79
2023/05/07 13:06:50;;;;;;;;;;;22.50;68.50;;;;;;5085588;27;42856;-79
2023/05/07 13:09:15;;;;;;;;;;;22.70;67.80;;;;;;5085777;27;43506;-80
2023/05/07 13:11:41;;;;;;;;;;;22.70;69.50;;;;;;5090798;27;42888;-81
2023/05/07 13:14:06;;;;;;;;;;;22.80;67.90;;;;;;5085693;27;43100;-80
2023/05/07 13:16:32;;;;;;;;;;;22.70;68.30;;;;;;5085462;28;42975;-80
2023/05/07 13:18:58;;;;;;;;;;;22.70;70.70;;;;;;5085218;28;43050;-89
2023/05/07 13:21:23;;;;;;;;;;;22.70;68.50;;;;;;5081193;27;42977;-82
2023/05/07 13:23:49;;;;;;;;;;;22.70;69.20;;;;;;5079654;27;43038;-83
2023/05/07 13:26:14;;;;;;;;;;;22.70;69.40;;;;;;5079606;27;43077;-80
2023/05/07 13:28:40;;;;;;;;;;;22.70;69.40;;;;;;5087005;27;43371;-85
2023/05/07 13:31:05;;;;;;;;;;;22.80;70.00;;;;;;5082434;27;42956;-81
2023/05/07 13:33:31;;;;;;;;;;;22.60;69.50;;;;;;5085183;28;43873;-78
2023/05/07 13:35:57;;;;;;;;;;;22.40;69.70;;;;;;5072298;28;42968;-79
2023/05/07 13:38:22;;;;;;;;;;;22.70;70.90;;;;;;5087195;27;42853;-80
2023/05/07 13:40:48;;;;;;;;;;;22.70;70.40;;;;;;5085405;27;43076;-81
2023/05/07 13:43:14;;;;;;;;;;;22.70;70.50;;;;;;5084753;28;43517;-82
2023/05/07 13:45:39;;;;;;;;;;;22.60;70.20;;;;;;5084788;28;42877;-84
2023/05/07 13:48:05;;;;;;;;;;;22.90;71.80;;;;;;5084342;27;44151;-81
2023/05/07 13:50:31;;;;;;;;;;;22.80;71.60;;;;;;5084446;27;43045;-85
2023/05/07 13:52:56;;;;;;;;;;;22.70;71.60;;;;;;5093054;27;43224;-85
2023/05/07 13:55:23;;;;;;;;;;;22.70;71.30;;;;;;5085646;27;42929;-82
2023/05/07 13:57:54;;;;;;;;;;;22.50;72.60;;;;;;5084919;27;43658;-82
2023/05/07 14:00:20;;;;;;;;;;;22.70;72.40;;;;;;5083818;27;43158;-86
2023/05/07 14:02:45;;;;;;;;;;;22.80;73.50;;;;;;5084021;27;43094;-86
2023/05/07 14:05:13;;;;;;;;;;;22.70;72.00;;;;;;5085299;27;43176;-79
2023/05/07 14:07:38;;;;;;;;;;;22.70;72.50;;;;;;5076933;27;42871;-84
2023/05/07 14:10:04;;;;;;;;;;;22.60;72.80;;;;;;5084105;27;43023;-83
2023/05/07 14:12:31;;;;;;;;;;;22.70;73.00;;;;;;5083963;27;43546;-85
2023/05/07 14:14:56;;;;;;;;;;;22.70;73.50;;;;;;5084279;27;43155;-79
2023/05/07 14:17:24;;;;;;;;;;;22.70;74.20;;;;;;5083442;28;43610;-82